Time;durP1;ratioP1;P1;durP2;ratioP2;P2;SDS_P1;SDS_P2;PMS_P1;PMS_P2;Temp;Humidity;BMP_temperature;BMP_pressure;BME280_temperature;BME280_humidity;BME280_pressure;Samples;Min_cycle;Max_cycle;Signal;HPM_P1;HPM_P2
2021/06/27 00:01:19;;;;;;;12.40;10.15;;;;;24.90;101678.00;;;;5113425;28;20276;-77
2021/06/27 00:03:46;;;;;;;12.65;10.65;;;;;24.80;101680.00;;;;5112343;28;20707;-77
2021/06/27 00:06:13;;;;;;;15.93;10.75;;;;;24.80;101676.00;;;;5112669;28;20193;-77
2021/06/27 00:08:41;;;;;;;13.90;10.80;;;;;24.80;101668.00;;;;5112201;28;20652;-77
2021/06/27 00:11:11;;;;;;;14.43;11.00;;;;;24.80;101674.00;;;;5112113;28;20220;-77
2021/06/27 00:13:41;;;;;;;13.02;10.50;;;;;24.80;101673.00;;;;5111668;28;20197;-77
2021/06/27 00:16:08;;;;;;;11.77;9.93;;;;;24.80;101673.00;;;;5112216;28;20217;-77
2021/06/27 00:18:37;;;;;;;13.32;11.13;;;;;24.80;101676.00;;;;5112301;28;20202;-78
2021/06/27 00:21:07;;;;;;;12.32;10.57;;;;;24.80;101667.00;;;;5112036;28;20610;-77
2021/06/27 00:23:36;;;;;;;12.65;10.73;;;;;24.80;101662.00;;;;5111552;28;20220;-77
2021/06/27 00:26:06;;;;;;;13.00;10.95;;;;;24.80;101671.00;;;;5112182;28;20200;-77
2021/06/27 00:28:34;;;;;;;12.48;10.63;;;;;24.80;101661.00;;;;5111541;28;20208;-77
2021/06/27 00:31:03;;;;;;;12.20;10.82;;;;;24.80;101661.00;;;;5111623;28;20213;-77
2021/06/27 00:33:31;;;;;;;14.75;11.05;;;;;24.80;101661.00;;;;5111946;28;20644;-77
2021/06/27 00:35:58;;;;;;;16.30;11.40;;;;;24.80;101660.00;;;;5111344;28;20726;-76
2021/06/27 00:38:26;;;;;;;13.82;11.13;;;;;24.80;101661.00;;;;5110941;28;20205;-77
2021/06/27 00:40:54;;;;;;;13.95;11.32;;;;;24.80;101659.00;;;;5112035;28;20888;-77
2021/06/27 00:43:21;;;;;;;13.85;11.55;;;;;24.80;101659.00;;;;5112314;28;20216;-77
2021/06/27 00:45:48;;;;;;;11.50;10.23;;;;;24.80;101659.00;;;;5110948;28;20229;-77
2021/06/27 00:48:17;;;;;;;13.40;11.57;;;;;24.70;101663.00;;;;5110461;28;20213;-77
2021/06/27 00:50:46;;;;;;;13.32;11.48;;;;;24.80;101663.00;;;;5102967;28;20214;-77
2021/06/27 00:53:14;;;;;;;15.63;12.23;;;;;24.80;101663.00;;;;5091610;28;20206;-77
2021/06/27 00:55:42;;;;;;;13.55;11.93;;;;;24.80;101655.00;;;;5091256;28;20194;-77
2021/06/27 00:58:10;;;;;;;15.30;12.48;;;;;24.80;101654.00;;;;5091755;28;20198;-77
2021/06/27 01:00:40;;;;;;;13.15;11.32;;;;;24.80;101656.00;;;;5099600;28;20201;-77
2021/06/27 01:03:08;;;;;;;12.45;10.85;;;;;24.80;101655.00;;;;5112269;28;20701;-77
2021/06/27 01:05:38;;;;;;;14.02;12.25;;;;;24.70;101648.00;;;;5111854;28;20221;-77
2021/06/27 01:08:06;;;;;;;14.93;12.10;;;;;24.70;101650.00;;;;5112367;28;20209;-78
2021/06/27 01:10:34;;;;;;;12.93;11.40;;;;;24.70;101652.00;;;;5111233;28;20224;-77
2021/06/27 01:13:02;;;;;;;15.27;12.23;;;;;24.70;101646.00;;;;5112526;28;20197;-77
2021/06/27 01:15:29;;;;;;;14.00;11.40;;;;;24.70;101653.00;;;;5110873;28;20189;-77
2021/06/27 01:17:58;;;;;;;12.30;10.68;;;;;24.70;101654.00;;;;5111856;28;20209;-77
2021/06/27 01:20:27;;;;;;;20.67;12.68;;;;;24.70;101648.00;;;;5111342;28;20649;-77
2021/06/27 01:22:56;;;;;;;17.27;13.45;;;;;24.70;101654.00;;;;5111620;28;20589;-77
2021/06/27 01:25:26;;;;;;;14.35;12.65;;;;;24.60;101652.00;;;;5111253;28;20229;-77
2021/06/27 01:27:55;;;;;;;16.17;13.85;;;;;24.60;101658.00;;;;5111185;28;20217;-77
2021/06/27 01:30:23;;;;;;;14.30;12.32;;;;;24.60;101656.00;;;;5110624;28;20198;-77
2021/06/27 01:32:56;;;;;;;16.38;12.65;;;;;24.60;101654.00;;;;5111512;28;20204;-78
2021/06/27 01:35:25;;;;;;;14.45;12.95;;;;;24.60;101659.00;;;;5111465;28;20205;-77
2021/06/27 01:37:53;;;;;;;14.02;12.07;;;;;24.60;101651.00;;;;5110968;28;20233;-78
2021/06/27 01:40:24;;;;;;;13.57;11.80;;;;;24.50;101643.00;;;;5111248;28;20204;-77
2021/06/27 01:42:52;;;;;;;16.73;13.10;;;;;24.50;101639.00;;;;5111693;28;20205;-77
2021/06/27 01:45:22;;;;;;;15.73;12.70;;;;;24.50;101642.00;;;;5110956;28;20225;-77
2021/06/27 01:47:57;;;;;;;15.40;12.88;;;;;24.40;101635.00;;;;5111154;28;20599;-77
2021/06/27 01:50:26;;;;;;;16.33;13.18;;;;;24.50;101633.00;;;;5091619;28;20205;-78
2021/06/27 01:52:54;;;;;;;14.07;12.27;;;;;24.40;101633.00;;;;5110953;28;20205;-77
2021/06/27 01:55:23;;;;;;;14.48;12.38;;;;;24.40;101630.00;;;;5110528;28;20194;-77
2021/06/27 01:57:51;;;;;;;13.40;12.00;;;;;24.40;101627.00;;;;5111157;28;20301;-77
2021/06/27 02:00:20;;;;;;;14.10;12.50;;;;;24.40;101627.00;;;;5111197;28;20189;-77
2021/06/27 02:02:48;;;;;;;13.48;11.77;;;;;24.40;101629.00;;;;5110927;28;20200;-77
2021/06/27 02:05:15;;;;;;;13.63;11.15;;;;;24.40;101620.00;;;;5110930;28;20255;-78
2021/06/27 02:07:43;;;;;;;14.52;12.52;;;;;24.40;101626.00;;;;5110718;28;20190;-77
2021/06/27 02:10:13;;;;;;;15.63;12.85;;;;;24.30;101621.00;;;;5110589;28;20189;-78
2021/06/27 02:12:42;;;;;;;14.63;12.48;;;;;24.30;101620.00;;;;5109867;28;20201;-77
2021/06/27 02:15:11;;;;;;;14.77;12.45;;;;;24.30;101617.00;;;;5110578;28;20202;-77
2021/06/27 02:17:48;;;;;;;17.48;13.00;;;;;24.30;101632.00;;;;5110266;28;20202;-78
2021/06/27 02:20:16;;;;;;;23.88;12.43;;;;;24.30;101628.00;;;;5109995;28;20310;-77
2021/06/27 02:22:43;;;;;;;18.63;13.82;;;;;24.30;101623.00;;;;5109256;28;20209;-77
2021/06/27 02:25:12;;;;;;;18.25;13.82;;;;;24.30;101622.00;;;;5109432;28;20276;-77
2021/06/27 02:27:39;;;;;;;17.05;13.10;;;;;24.30;101628.00;;;;5091675;28;20210;-77
2021/06/27 02:30:11;;;;;;;18.50;13.55;;;;;24.20;101629.00;;;;5090033;28;20501;-77
2021/06/27 02:32:38;;;;;;;15.77;12.82;;;;;24.30;101623.00;;;;5089053;28;20287;-77
2021/06/27 02:35:08;;;;;;;16.60;13.50;;;;;24.30;101624.00;;;;5089962;28;20232;-77
2021/06/27 02:37:35;;;;;;;17.25;13.98;;;;;24.20;101625.00;;;;5089905;28;20237;-77
2021/06/27 02:40:03;;;;;;;16.20;13.82;;;;;24.30;101628.00;;;;5089653;28;20668;-77
2021/06/27 02:42:31;;;;;;;16.15;13.48;;;;;24.20;101627.00;;;;5098359;28;20198;-77
2021/06/27 02:44:58;;;;;;;18.70;13.88;;;;;24.20;101631.00;;;;5109705;28;20687;-77
2021/06/27 02:47:26;;;;;;;18.88;14.40;;;;;24.20;101626.00;;;;5109157;28;20201;-77
2021/06/27 02:49:54;;;;;;;17.00;12.90;;;;;24.20;101624.00;;;;5095959;28;20206;-77
2021/06/27 02:52:21;;;;;;;18.42;13.93;;;;;24.20;101623.00;;;;5090122;28;20205;-77
2021/06/27 02:54:48;;;;;;;17.23;13.18;;;;;24.20;101626.00;;;;5089279;28;20587;-77
2021/06/27 02:57:16;;;;;;;18.10;14.10;;;;;24.20;101627.00;;;;5089008;28;20232;-77
2021/06/27 02:59:43;;;;;;;17.83;14.25;;;;;24.20;101619.00;;;;5099304;28;20683;-77
2021/06/27 03:02:10;;;;;;;17.13;13.88;;;;;24.30;101627.00;;;;5109648;28;20198;-77
2021/06/27 03:04:39;;;;;;;16.00;13.55;;;;;24.20;101623.00;;;;5109277;28;20224;-78
2021/06/27 03:07:06;;;;;;;17.95;14.45;;;;;24.30;101617.00;;;;5109414;28;20194;-77
2021/06/27 03:09:33;;;;;;;15.85;13.40;;;;;24.30;101603.00;;;;5109285;28;20197;-77
2021/06/27 03:12:00;;;;;;;19.58;15.60;;;;;24.30;101605.00;;;;5109702;28;20563;-76
2021/06/27 03:14:28;;;;;;;20.98;14.80;;;;;24.30;101601.00;;;;5109205;28;20200;-77
2021/06/27 03:16:55;;;;;;;18.15;14.05;;;;;24.30;101599.00;;;;5110072;28;20201;-77
2021/06/27 03:19:22;;;;;;;19.17;14.13;;;;;24.30;101594.00;;;;5108726;28;20202;-77
2021/06/27 03:21:51;;;;;;;18.65;14.70;;;;;24.20;101591.00;;;;5109147;28;20202;-77
2021/06/27 03:24:18;;;;;;;17.50;13.80;;;;;24.20;101585.00;;;;5108774;28;20209;-77
2021/06/27 03:26:45;;;;;;;19.15;14.82;;;;;24.20;101584.00;;;;5109027;28;20193;-77
2021/06/27 03:29:12;;;;;;;19.27;14.52;;;;;24.20;101585.00;;;;5109230;28;20190;-77
2021/06/27 03:31:39;;;;;;;19.83;15.50;;;;;24.20;101585.00;;;;5108476;28;20664;-77
2021/06/27 03:34:07;;;;;;;20.73;15.73;;;;;24.20;101579.00;;;;5109555;28;20212;-77
2021/06/27 03:36:34;;;;;;;16.90;13.55;;;;;24.20;101588.00;;;;5109281;28;20599;-77
2021/06/27 03:39:06;;;;;;;17.63;13.85;;;;;24.10;101582.00;;;;5109021;28;20238;-77
2021/06/27 03:41:37;;;;;;;20.60;15.88;;;;;24.20;101581.00;;;;5109414;28;20198;-77
2021/06/27 03:44:05;;;;;;;19.63;15.15;;;;;24.20;101581.00;;;;5106997;28;20205;-78
2021/06/27 03:46:32;;;;;;;20.20;15.98;;;;;24.10;101577.00;;;;5106308;28;20221;-77
2021/06/27 03:49:00;;;;;;;20.58;15.20;;;;;24.10;101572.00;;;;5107206;28;20239;-78
2021/06/27 03:51:27;;;;;;;19.83;14.68;;;;;24.10;101572.00;;;;5095208;28;20205;-77
2021/06/27 03:53:55;;;;;;;17.65;13.73;;;;;24.10;101576.00;;;;5088404;28;20694;-77
2021/06/27 03:56:23;;;;;;;18.67;14.38;;;;;24.10;101582.00;;;;5088989;28;20708;-77
2021/06/27 03:58:51;;;;;;;24.13;16.13;;;;;24.10;101575.00;;;;5088492;28;20210;-78
2021/06/27 04:01:18;;;;;;;20.50;15.43;;;;;24.10;101575.00;;;;5088622;28;20217;-77
2021/06/27 04:03:46;;;;;;;20.17;15.25;;;;;24.10;101574.00;;;;5089007;28;20226;-77
2021/06/27 04:06:13;;;;;;;18.92;14.65;;;;;24.10;101568.00;;;;5087324;28;20334;-77
2021/06/27 04:08:40;;;;;;;19.70;14.70;;;;;24.10;101575.00;;;;5106398;28;20213;-77
2021/06/27 04:11:08;;;;;;;20.70;15.30;;;;;24.10;101572.00;;;;5108637;28;20201;-77
2021/06/27 04:13:37;;;;;;;18.42;15.10;;;;;24.10;101574.00;;;;5108055;28;20205;-77
2021/06/27 04:16:06;;;;;;;26.73;14.45;;;;;24.10;101571.00;;;;5108852;28;20216;-77
2021/06/27 04:18:34;;;;;;;19.25;14.55;;;;;24.10;101575.00;;;;5108370;28;20583;-78
2021/06/27 04:21:02;;;;;;;17.42;14.27;;;;;24.10;101576.00;;;;5108967;28;20213;-78
2021/06/27 04:23:30;;;;;;;18.20;13.90;;;;;24.20;101577.00;;;;5108428;28;20205;-78
2021/06/27 04:25:58;;;;;;;17.63;13.95;;;;;24.20;101577.00;;;;5107619;28;20225;-78
2021/06/27 04:28:26;;;;;;;18.58;13.48;;;;;24.20;101566.00;;;;5108703;28;20194;-78
2021/06/27 04:30:54;;;;;;;20.60;13.90;;;;;24.20;101566.00;;;;5108471;28;20205;-78
2021/06/27 04:33:22;;;;;;;19.90;14.65;;;;;24.20;101566.00;;;;5108112;28;20208;-78
2021/06/27 04:35:49;;;;;;;19.38;15.05;;;;;24.30;101561.00;;;;5111047;28;20330;-78
2021/06/27 04:38:18;;;;;;;16.98;12.98;;;;;24.30;101556.00;;;;5112771;28;20254;-78
2021/06/27 04:40:46;;;;;;;18.20;12.90;;;;;24.30;101548.00;;;;5111633;28;20198;-78
2021/06/27 04:43:13;;;;;;;18.35;14.55;;;;;24.30;101544.00;;;;5112535;28;20578;-78
2021/06/27 04:45:42;;;;;;;19.42;14.43;;;;;24.30;101544.00;;;;5112118;28;20221;-77
2021/06/27 04:48:11;;;;;;;20.58;14.63;;;;;24.30;101541.00;;;;5111906;28;20212;-78
2021/06/27 04:50:39;;;;;;;20.05;15.68;;;;;24.40;101542.00;;;;5111704;28;20208;-78
2021/06/27 04:53:11;;;;;;;17.90;14.25;;;;;24.40;101540.00;;;;5112453;28;20205;-78
2021/06/27 04:55:38;;;;;;;18.92;14.30;;;;;24.40;101539.00;;;;5112140;28;20193;-78
2021/06/27 04:58:06;;;;;;;20.25;14.85;;;;;24.40;101539.00;;;;5111322;28;20221;-78
2021/06/27 05:00:33;;;;;;;18.50;14.90;;;;;24.50;101539.00;;;;5111877;28;20201;-78
2021/06/27 05:03:01;;;;;;;20.73;15.15;;;;;24.50;101541.00;;;;5112647;28;20212;-79
2021/06/27 05:05:30;;;;;;;16.08;14.32;;;;;24.50;101540.00;;;;5111240;28;20229;-78
2021/06/27 05:07:57;;;;;;;18.75;13.52;;;;;24.60;101531.00;;;;5111654;28;20197;-78
2021/06/27 05:10:25;;;;;;;19.00;14.43;;;;;24.60;101531.00;;;;5110943;28;20580;-79
2021/06/27 05:12:52;;;;;;;17.98;13.43;;;;;24.60;101530.00;;;;5112180;28;20208;-79
2021/06/27 05:15:20;;;;;;;20.92;14.10;;;;;24.60;101531.00;;;;5112031;28;20576;-78
2021/06/27 05:17:47;;;;;;;16.98;13.60;;;;;24.60;101534.00;;;;5111945;28;20202;-78
2021/06/27 05:20:15;;;;;;;16.70;13.65;;;;;24.60;101530.00;;;;5111798;28;20201;-78
2021/06/27 05:22:43;;;;;;;17.17;13.77;;;;;24.60;101532.00;;;;5111227;28;20205;-78
2021/06/27 05:25:11;;;;;;;20.90;15.20;;;;;24.60;101531.00;;;;5110582;28;20679;-78
2021/06/27 05:27:39;;;;;;;18.88;14.23;;;;;24.70;101526.00;;;;5111590;28;20198;-78
2021/06/27 05:30:08;;;;;;;16.25;12.55;;;;;24.70;101525.00;;;;5111612;28;20197;-78
2021/06/27 05:32:35;;;;;;;16.00;13.20;;;;;24.70;101525.00;;;;5110622;28;20217;-78
2021/06/27 05:35:03;;;;;;;18.95;13.65;;;;;24.70;101523.00;;;;5111722;28;20208;-79
2021/06/27 05:37:30;;;;;;;17.60;13.25;;;;;24.70;101519.00;;;;5110851;28;20608;-78
2021/06/27 05:39:59;;;;;;;15.85;11.98;;;;;24.70;101524.00;;;;5111490;28;20201;-78
2021/06/27 05:42:26;;;;;;;18.50;13.00;;;;;24.80;101519.00;;;;5110893;28;20635;-78
2021/06/27 05:44:53;;;;;;;18.00;13.02;;;;;24.80;101520.00;;;;5111212;28;20689;-78
2021/06/27 05:47:21;;;;;;;17.55;14.60;;;;;24.90;101515.00;;;;5110540;28;20225;-78
2021/06/27 05:49:48;;;;;;;17.83;13.90;;;;;24.90;101514.00;;;;5100720;28;20198;-78
2021/06/27 05:52:15;;;;;;;16.25;13.52;;;;;25.00;101512.00;;;;5090180;28;20560;-79
2021/06/27 05:54:43;;;;;;;17.13;13.30;;;;;25.00;101511.00;;;;5090595;28;20220;-78
2021/06/27 05:57:11;;;;;;;17.98;12.23;;;;;25.00;101512.00;;;;5090454;28;20217;-78
2021/06/27 05:59:38;;;;;;;15.60;12.02;;;;;25.10;101520.00;;;;5090829;28;20573;-78
2021/06/27 06:02:06;;;;;;;15.48;12.48;;;;;25.10;101524.00;;;;5090352;28;20194;-79
2021/06/27 06:04:33;;;;;;;14.75;12.63;;;;;25.20;101518.00;;;;5089215;28;20739;-78
2021/06/27 06:07:00;;;;;;;13.25;11.00;;;;;25.30;101527.00;;;;5103078;28;20709;-78
2021/06/27 06:09:28;;;;;;;15.05;11.85;;;;;25.30;101528.00;;;;5110689;28;20213;-78
2021/06/27 06:11:55;;;;;;;17.02;12.05;;;;;25.40;101521.00;;;;5110837;28;20201;-78
2021/06/27 06:14:23;;;;;;;15.45;12.38;;;;;25.40;101524.00;;;;5110332;28;20682;-78
2021/06/27 06:16:51;;;;;;;17.50;13.02;;;;;25.50;101525.00;;;;5110481;28;20204;-78
2021/06/27 06:19:19;;;;;;;16.63;12.90;;;;;25.50;101527.00;;;;5110293;28;20304;-78
2021/06/27 06:21:47;;;;;;;16.90;12.65;;;;;25.50;101528.00;;;;5110456;28;20202;-78
2021/06/27 06:24:15;;;;;;;13.68;10.88;;;;;25.60;101525.00;;;;5110513;28;20197;-78
2021/06/27 06:26:42;;;;;;;19.25;11.95;;;;;25.60;101522.00;;;;5109172;28;20217;-78
2021/06/27 06:29:09;;;;;;;15.30;12.40;;;;;25.60;101519.00;;;;5110363;28;20205;-78
2021/06/27 06:31:38;;;;;;;18.40;12.73;;;;;25.60;101519.00;;;;5110019;28;20201;-78
2021/06/27 06:34:05;;;;;;;14.90;10.90;;;;;25.60;101529.00;;;;5110627;28;20623;-78
2021/06/27 06:36:32;;;;;;;15.05;12.07;;;;;25.70;101531.00;;;;5110075;28;20233;-78
2021/06/27 06:39:00;;;;;;;14.35;11.85;;;;;25.70;101530.00;;;;5109710;28;20197;-78
2021/06/27 06:41:27;;;;;;;15.25;11.10;;;;;25.70;101535.00;;;;5109254;28;20245;-79
2021/06/27 06:43:55;;;;;;;15.27;11.95;;;;;25.80;101530.00;;;;5110722;28;20208;-79
2021/06/27 06:46:22;;;;;;;14.48;11.25;;;;;25.80;101534.00;;;;5109856;28;20695;-79
2021/06/27 06:48:51;;;;;;;16.10;11.65;;;;;25.80;101535.00;;;;5108834;28;20209;-79
2021/06/27 06:51:19;;;;;;;13.73;11.05;;;;;25.80;101538.00;;;;5100098;28;20689;-78
2021/06/27 06:53:46;;;;;;;13.60;10.43;;;;;25.90;101530.00;;;;5089455;28;20202;-79
2021/06/27 06:56:13;;;;;;;13.45;11.20;;;;;26.00;101525.00;;;;5089044;28;20619;-79
2021/06/27 06:58:40;;;;;;;13.07;11.73;;;;;26.00;101537.00;;;;5105981;28;20206;-79
2021/06/27 07:01:07;;;;;;;13.77;10.43;;;;;26.10;101533.00;;;;5110054;28;20197;-79
2021/06/27 07:03:35;;;;;;;13.20;10.85;;;;;26.10;101534.00;;;;5109705;28;20197;-79
2021/06/27 07:06:03;;;;;;;13.35;11.00;;;;;26.20;101535.00;;;;5109612;28;20225;-78
2021/06/27 07:08:31;;;;;;;12.88;10.80;;;;;26.20;101532.00;;;;5108516;28;20197;-79
2021/06/27 07:10:59;;;;;;;12.93;10.70;;;;;26.30;101536.00;;;;5109992;28;20212;-79
2021/06/27 07:13:26;;;;;;;12.57;10.82;;;;;26.40;101543.00;;;;5109370;28;20205;-78
2021/06/27 07:15:53;;;;;;;15.70;11.32;;;;;26.50;101533.00;;;;5108689;28;20697;-80
2021/06/27 07:18:21;;;;;;;11.82;9.10;;;;;26.60;101540.00;;;;5109192;28;20203;-79
2021/06/27 07:20:49;;;;;;;10.93;9.32;;;;;26.60;101535.00;;;;5109141;28;20212;-79
2021/06/27 07:23:18;;;;;;;11.98;10.60;;;;;26.70;101534.00;;;;5108993;28;20529;-79
2021/06/27 07:25:45;;;;;;;10.38;9.30;;;;;26.80;101537.00;;;;5109032;28;20205;-80
2021/06/27 07:28:12;;;;;;;10.80;9.32;;;;;26.90;101535.00;;;;5109257;28;20198;-79
2021/06/27 07:30:40;;;;;;;10.43;9.25;;;;;27.00;101528.00;;;;5108674;28;20672;-79
2021/06/27 07:33:08;;;;;;;13.10;9.82;;;;;27.10;101540.00;;;;5109042;28;20205;-79
2021/06/27 07:35:36;;;;;;;11.18;9.52;;;;;27.20;101533.00;;;;5108787;28;20668;-79
2021/06/27 07:38:03;;;;;;;9.48;8.45;;;;;27.30;101537.00;;;;5108825;28;20244;-80
2021/06/27 07:40:31;;;;;;;10.43;9.00;;;;;27.30;101536.00;;;;5108998;28;20213;-80
2021/06/27 07:42:59;;;;;;;12.43;9.48;;;;;27.50;101543.00;;;;5109147;28;20212;-79
2021/06/27 07:45:26;;;;;;;11.20;9.50;;;;;27.50;101535.00;;;;5109258;28;20201;-79
2021/06/27 07:47:53;;;;;;;10.30;9.23;;;;;27.60;101534.00;;;;5109292;28;20248;-79
2021/06/27 07:50:20;;;;;;;10.10;9.02;;;;;27.70;101531.00;;;;5095277;28;20232;-79
2021/06/27 07:52:47;;;;;;;13.82;9.55;;;;;27.90;101539.00;;;;5087620;28;20198;-80
2021/06/27 07:55:15;;;;;;;12.13;9.98;;;;;28.00;101541.00;;;;5088356;28;20210;-79
2021/06/27 07:57:44;;;;;;;10.30;7.90;;;;;28.10;101532.00;;;;5088435;28;20603;-79
2021/06/27 08:00:12;;;;;;;10.65;8.90;;;;;28.20;101537.00;;;;5088164;28;20210;-79
2021/06/27 08:02:39;;;;;;;11.75;9.05;;;;;28.30;101534.00;;;;5088207;28;20206;-79
2021/06/27 08:05:07;;;;;;;12.13;9.48;;;;;28.40;101534.00;;;;5093833;28;20205;-80
2021/06/27 08:07:35;;;;;;;9.65;8.07;;;;;28.50;101537.00;;;;5108869;28;20229;-79
2021/06/27 08:10:03;;;;;;;10.13;8.52;;;;;28.60;101537.00;;;;5109824;28;20204;-79
2021/06/27 08:12:31;;;;;;;10.15;8.57;;;;;28.70;101539.00;;;;5112026;28;20600;-79
2021/06/27 08:15:00;;;;;;;11.50;9.65;;;;;28.80;101534.00;;;;5113220;28;20205;-80
2021/06/27 08:17:27;;;;;;;9.73;8.68;;;;;28.80;101538.00;;;;5112607;28;20197;-80
2021/06/27 08:19:55;;;;;;;9.93;8.90;;;;;28.90;101536.00;;;;5113000;28;20193;-80
2021/06/27 08:22:22;;;;;;;10.80;8.25;;;;;28.90;101540.00;;;;5111869;28;20201;-79
2021/06/27 08:24:49;;;;;;;12.48;9.48;;;;;29.00;101545.00;;;;5112540;28;20197;-80
2021/06/27 08:27:17;;;;;;;9.70;8.30;;;;;29.00;101544.00;;;;5112755;28;20225;-79
2021/06/27 08:29:44;;;;;;;9.40;8.40;;;;;29.10;101547.00;;;;5112117;28;20208;-79
2021/06/27 08:32:13;;;;;;;10.68;9.55;;;;;29.10;101552.00;;;;5112318;28;20193;-80
2021/06/27 08:34:40;;;;;;;12.55;9.15;;;;;29.10;101539.00;;;;5112140;28;20197;-81
2021/06/27 08:37:07;;;;;;;10.98;8.25;;;;;29.20;101542.00;;;;5111438;28;20225;-80
2021/06/27 08:39:34;;;;;;;10.10;9.05;;;;;29.20;101548.00;;;;5111539;28;20212;-79
2021/06/27 08:42:02;;;;;;;10.95;9.75;;;;;29.30;101548.00;;;;5111299;28;20202;-79
2021/06/27 08:44:30;;;;;;;10.80;9.00;;;;;29.30;101552.00;;;;5111733;28;20205;-80
2021/06/27 08:46:58;;;;;;;10.05;7.72;;;;;29.40;101549.00;;;;5111270;28;20566;-79
2021/06/27 08:49:27;;;;;;;8.55;7.72;;;;;29.40;101548.00;;;;5110446;28;20671;-79
2021/06/27 08:51:56;;;;;;;9.20;8.20;;;;;29.50;101545.00;;;;5111997;28;20205;-79
2021/06/27 08:54:23;;;;;;;9.20;7.22;;;;;29.50;101542.00;;;;5110978;28;20678;-79
2021/06/27 08:56:50;;;;;;;8.95;8.05;;;;;29.60;101536.00;;;;5111513;28;20237;-80
2021/06/27 08:59:17;;;;;;;9.50;7.60;;;;;29.70;101536.00;;;;5111480;28;20194;-79
2021/06/27 09:01:45;;;;;;;8.88;7.97;;;;;29.80;101535.00;;;;5111419;28;20205;-80
2021/06/27 09:04:16;;;;;;;8.68;7.65;;;;;29.80;101535.00;;;;5111439;28;20205;-79
2021/06/27 09:06:44;;;;;;;11.68;8.35;;;;;29.90;101529.00;;;;5111244;28;20374;-77
2021/06/27 09:09:16;;;;;;;8.05;7.22;;;;;30.00;101539.00;;;;5111327;28;20205;-80
2021/06/27 09:12:01;;;;;;;7.57;6.85;;;;;30.10;101529.00;;;;5111412;28;20977;-79
2021/06/27 09:14:34;;;;;;;8.43;7.43;;;;;30.30;101524.00;;;;5110851;28;20217;-80
2021/06/27 09:17:14;;;;;;;8.88;7.75;;;;;30.40;101524.00;;;;5111515;28;20198;-77
2021/06/27 09:19:59;;;;;;;8.63;7.47;;;;;30.50;101521.00;;;;5111152;28;20276;-77
2021/06/27 09:22:30;;;;;;;7.65;6.10;;;;;30.70;101516.00;;;;5110267;28;20583;-78
2021/06/27 09:25:16;;;;;;;6.63;5.93;;;;;30.80;101519.00;;;;5111946;28;20600;-77
2021/06/27 09:27:44;;;;;;;7.18;6.47;;;;;31.10;101515.00;;;;5111305;28;20715;-77
2021/06/27 09:30:19;;;;;;;7.38;6.68;;;;;31.10;101509.00;;;;5110789;28;20288;-77
2021/06/27 09:32:56;;;;;;;7.30;6.53;;;;;31.30;101504.00;;;;5111457;28;20210;-78
2021/06/27 09:35:55;;;;;;;5.75;5.25;;;;;31.40;101508.00;;;;5111943;28;20215;-78
2021/06/27 09:38:33;;;;;;;6.18;5.45;;;;;31.60;101506.00;;;;5110954;28;20202;-78
2021/06/27 09:41:03;;;;;;;7.78;6.07;;;;;31.80;101510.00;;;;5111800;28;20652;-77
2021/06/27 09:43:32;;;;;;;6.72;6.13;;;;;32.00;101499.00;;;;5110974;28;20280;-77
2021/06/27 09:46:01;;;;;;;7.30;6.43;;;;;32.10;101500.00;;;;5111551;28;20194;-77
2021/06/27 09:48:29;;;;;;;6.43;5.82;;;;;32.10;101501.00;;;;5110682;28;20224;-77
2021/06/27 09:50:58;;;;;;;6.70;6.10;;;;;32.20;101496.00;;;;5097410;28;20194;-77
2021/06/27 09:53:42;;;;;;;6.00;5.45;;;;;32.10;101497.00;;;;5110669;28;20197;-78
2021/06/27 09:56:10;;;;;;;5.28;4.82;;;;;32.30;101492.00;;;;5110841;28;20647;-78
2021/06/27 09:58:38;;;;;;;5.63;5.13;;;;;32.40;101495.00;;;;5110991;28;20606;-78
2021/06/27 10:01:21;;;;;;;6.03;5.50;;;;;32.30;101491.00;;;;5111019;28;20189;-78
2021/06/27 10:03:52;;;;;;;6.22;5.63;;;;;32.50;101489.00;;;;5108951;28;20254;-78
2021/06/27 10:06:19;;;;;;;6.30;5.70;;;;;32.60;101485.00;;;;5111209;28;20197;-78
2021/06/27 10:08:48;;;;;;;11.02;6.25;;;;;32.60;101478.00;;;;5110710;28;20225;-78
2021/06/27 10:11:17;;;;;;;4.97;4.57;;;;;32.70;101482.00;;;;5110955;28;20188;-79
2021/06/27 10:13:47;;;;;;;5.35;4.85;;;;;32.70;101483.00;;;;5110504;28;20762;-78
2021/06/27 10:16:26;;;;;;;5.88;5.28;;;;;32.70;101484.00;;;;5110210;28;20200;-78
2021/06/27 10:18:53;;;;;;;4.80;4.00;;;;;32.80;101473.00;;;;5110530;28;20208;-78
2021/06/27 10:21:21;;;;;;;5.95;5.45;;;;;32.80;101476.00;;;;5110575;28;20201;-78
2021/06/27 10:23:51;;;;;;;6.30;5.15;;;;;32.80;101462.00;;;;5089950;28;20202;-78
2021/06/27 10:26:21;;;;;;;4.97;4.50;;;;;32.80;101470.00;;;;5089888;28;20687;-78
2021/06/27 10:28:49;;;;;;;9.85;6.35;;;;;32.80;101471.00;;;;5090104;28;20230;-79
2021/06/27 10:31:18;;;;;;;5.93;5.35;;;;;32.80;101468.00;;;;5089917;28;20194;-78
2021/06/27 10:33:46;;;;;;;6.13;5.43;;;;;32.70;101470.00;;;;5089809;28;20296;-79
2021/06/27 10:36:19;;;;;;;5.72;5.10;;;;;32.70;101470.00;;;;5089126;28;20691;-78
2021/06/27 10:38:50;;;;;;;6.07;4.78;;;;;32.70;101468.00;;;;5100341;28;20201;-78
2021/06/27 10:41:17;;;;;;;5.97;4.47;;;;;32.70;101469.00;;;;5109894;28;20197;-78
2021/06/27 10:44:05;;;;;;;5.70;5.15;;;;;32.60;101467.00;;;;5110145;28;20224;-78
2021/06/27 10:46:39;;;;;;;6.03;4.80;;;;;32.60;101464.00;;;;5110027;28;20193;-77
2021/06/27 10:49:08;;;;;;;4.57;4.18;;;;;32.70;101464.00;;;;5109408;28;20197;-78
2021/06/27 10:52:01;;;;;;;5.32;4.82;;;;;32.50;101465.00;;;;5089066;28;20209;-78
2021/06/27 10:54:30;;;;;;;7.80;5.22;;;;;32.60;101458.00;;;;5089132;28;20251;-78
2021/06/27 10:57:00;;;;;;;5.65;4.85;;;;;32.60;101452.00;;;;5110024;28;20229;-78
2021/06/27 10:59:55;;;;;;;8.95;5.63;;;;;32.50;101457.00;;;;5109882;28;20197;-78
2021/06/27 11:02:36;;;;;;;5.07;4.25;;;;;32.50;101452.00;;;;5109261;28;20201;-78
2021/06/27 11:05:39;;;;;;;5.78;4.20;;;;;32.50;101451.00;;;;5109621;28;20205;-78
2021/06/27 11:08:08;;;;;;;5.35;4.03;;;;;32.60;101447.00;;;;5109980;28;20220;-79
2021/06/27 11:10:37;;;;;;;4.82;4.40;;;;;32.60;101451.00;;;;5109036;28;20212;-79
2021/06/27 11:13:15;;;;;;;4.43;4.03;;;;;32.60;101444.00;;;;5109584;28;20635;-78
2021/06/27 11:16:02;;;;;;;4.43;4.10;;;;;32.60;101447.00;;;;5109193;28;20194;-78
2021/06/27 11:18:32;;;;;;;5.05;4.55;;;;;32.70;101439.00;;;;5109360;27;20689;-78
2021/06/27 11:21:09;;;;;;;4.07;3.67;;;;;32.60;101440.00;;;;5109406;28;20581;-78
2021/06/27 11:23:57;;;;;;;4.10;3.58;;;;;32.60;101440.00;;;;5109394;28;20208;-78
2021/06/27 11:26:57;;;;;;;4.82;4.10;;;;;32.70;101442.00;;;;5108802;28;20205;-79
2021/06/27 11:29:49;;;;;;;4.55;3.80;;;;;32.70;101441.00;;;;5108995;28;20212;-78
2021/06/27 11:32:47;;;;;;;4.72;4.22;;;;;32.70;101435.00;;;;5109017;28;20663;-78
2021/06/27 11:35:35;;;;;;;5.25;4.75;;;;;32.80;101441.00;;;;5108647;28;20189;-78
2021/06/27 11:38:03;;;;;;;4.88;4.40;;;;;32.90;101427.00;;;;5109046;28;20229;-78
2021/06/27 11:40:48;;;;;;;4.80;4.30;;;;;32.80;101423.00;;;;5109350;28;20567;-78
2021/06/27 11:43:17;;;;;;;3.72;3.42;;;;;32.90;101422.00;;;;5108675;28;20287;-79
2021/06/27 11:45:49;;;;;;;5.20;3.95;;;;;32.90;101423.00;;;;5108223;28;20698;-79
2021/06/27 11:48:17;;;;;;;4.25;3.50;;;;;33.00;101430.00;;;;5108550;28;20225;-78
2021/06/27 11:50:50;;;;;;;4.25;3.70;;;;;33.00;101426.00;;;;5094810;28;20213;-78
2021/06/27 11:53:20;;;;;;;3.92;3.63;;;;;33.10;101425.00;;;;5088128;28;20201;-79
2021/06/27 11:56:04;;;;;;;4.50;4.10;;;;;33.10;101428.00;;;;5089130;28;20209;-78
2021/06/27 11:58:33;;;;;;;4.00;3.63;;;;;33.10;101424.00;;;;5088198;28;20690;-78
2021/06/27 12:01:09;;;;;;;4.45;4.05;;;;;33.00;101417.00;;;;5088695;28;20233;-79
2021/06/27 12:03:47;;;;;;;4.10;3.65;;;;;33.00;101420.00;;;;5098423;28;20201;-79
2021/06/27 12:06:14;;;;;;;4.28;3.85;;;;;33.00;101414.00;;;;5108966;28;20197;-79
2021/06/27 12:08:46;;;;;;;5.53;3.90;;;;;33.00;101420.00;;;;5107965;28;20714;-79